• Join FlightAware (Why Join?)
  • Login
  • US Flag 
11:25AM EST


 

Airport Tracker/Info


-or-


 

Live Flight TrackerFlight Track Log ✈ C-GONN ✈ 10-Jun-2013 ✈ CYSB - CYYZ

Flight Track Log - Related Links

Times and Time Zones

All times are in EDT time to prevent confusion due to time zone crossing. See the C-GONN flight status page for this flight to view local times or setup timezone preferences in your user account.

Time Position Orientation Groundspeed Altitude Reporting Facility
EDT Latitude Longitude Course Direction KTS MPH feet Rate Location/Type
11:42AM 46.6500 -80.7667 184° South 120 138 2,500  Level Toronto Center
11:43AM 46.6667 -80.7167 64° Northeast 120 138 3,500 900 Climbing Toronto Center
11:44AM 46.6500 -80.7000 146° Southeast 120 138 4,300 780 Climbing Toronto Center
11:45AM 46.6000 -80.7000 180° South 160 184 5,100 720 Climbing Toronto Center
11:46AM 46.2959 -80.6620 167° South  Level Estimated
11:46AM 46.5500 -80.6667 155° Southeast 170 196 5,800  Level Toronto Center
11:47AM 46.2300 -80.6349 172° South  Level Estimated
11:47AM 46.5167 -80.6667 180° South 180 207 6,600  Level Toronto Center
11:48AM 46.1618 -80.6419 184° South  Level FlightAware Approximate
11:48AM 46.4500 -80.6500 170° South 190 219 7,200  Level Toronto Center
11:49AM 46.4000 -80.6500 180° South 200 230 8,000 720 Climbing Toronto Center
11:50AM 46.3500 -80.6167 155° Southeast 190 219 8,700 600 Climbing Toronto Center
11:51AM 46.3000 -80.6167 180° South 190 219 9,300 600 Climbing Toronto Center
11:52AM 46.2333 -80.6000 170° South 200 230 10,000 720 Climbing Toronto Center
11:53AM 46.1833 -80.6000 180° South 190 219 10,800 660 Climbing Toronto Center
11:54AM 46.1333 -80.5667 155° Southeast 200 230 11,400 540 Climbing Toronto Center
11:55AM 46.0833 -80.5667 180° South 210 242 11,900 540 Climbing Toronto Center
11:56AM 46.0167 -80.5500 170° South 210 242 12,500 660 Climbing Toronto Center
11:57AM 45.9667 -80.5500 180° South 200 230 13,300 720 Climbing Toronto Center
11:58AM 45.9167 -80.5167 155° Southeast 200 230 14,000 660 Climbing Toronto Center
11:59AM 45.8500 -80.5167 180° South 200 230 14,700 540 Climbing Toronto Center
12:00PM 45.8000 -80.5000 167° South 200 230 15,100 180 Climbing Toronto Center
12:01PM 45.7333 -80.5000 180° South 210 242 15,100  Level Toronto Center
12:02PM 45.6833 -80.4667 155° Southeast 230 265 15,100  Level Toronto Center
12:03PM 45.6167 -80.4667 180° South 230 265 15,100  Level Toronto Center
12:04PM 45.5500 -80.4333 161° South 240 276 15,100  Level Toronto Center
12:05PM 45.4833 -80.4167 170° South 240 276 15,100  Level Toronto Center
12:06PM 45.4167 -80.4167 180° South 240 276 15,100  Level Toronto Center
12:07PM 45.3500 -80.3833 161° South 240 276 15,100  Level Toronto Center
12:08PM 45.2833 -80.3833 180° South 240 276 15,100  Level Toronto Center
12:09PM 45.2167 -80.3667 170° South 240 276 15,100  Level Toronto Center
12:10PM 45.1500 -80.3333 161° South 240 276 15,100 -60 Level Toronto Center
12:11PM 45.0833 -80.3333 180° South 240 276 15,000 -60 Descending Toronto Center
12:12PM 45.0167 -80.3167 170° South 240 276 15,000  Level Toronto Center
12:13PM 44.9500 -80.3167 180° South 240 276 15,000  Level Toronto Center
12:14PM 44.8833 -80.2833 160° South 240 276 15,000  Level Toronto Center
12:15PM 44.8167 -80.2833 180° South 240 276 15,000  Level Toronto Center
12:16PM 44.7500 -80.2667 170° South 240 276 15,000  Level Toronto Center
12:17PM 44.6833 -80.2500 170° South 240 276 15,000  Level Toronto Center
12:18PM 44.6167 -80.2333 170° South 240 276 15,000  Level Toronto Center
12:19PM 44.5500 -80.2167 170° South 240 276 15,000  Level Toronto Center
12:20PM 44.4833 -80.2167 180° South 240 276 15,000  Level Toronto Center
12:21PM 44.4167 -80.2000 170° South 240 276 15,000 -480 Level Toronto Center
12:22PM 44.3500 -80.1667 160° South 250 288 14,100 -1,020 Descending Toronto Center
12:23PM 44.2667 -80.1667 180° South 270 311 13,000 -1,200 Descending Toronto Center
12:24PM 44.2000 -80.1500 170° South 280 322 11,800 -1,260 Descending Toronto Center
12:25PM 44.1167 -80.1167 164° South 270 311 10,500 -1,200 Descending Toronto Center
12:26PM 44.0667 -80.0500 136° Southeast 260 299 9,400 -780 Descending Toronto Center
12:27PM 44.0167 -80.0000 144° Southeast 260 299 9,000 -600 Descending Toronto Center
12:28PM 43.9500 -79.9333 144° Southeast 240 276 8,300 -540 Descending Toronto Center
12:29PM 43.9000 -79.8833 144° Southeast 250 288 8,000 -180 Descending Toronto Center
12:30PM 43.8500 -79.8167 136° Southeast 230 265 8,000  Level Toronto Center
12:31PM 43.8000 -79.7667 144° Southeast 230 265 8,000 -600 Level Toronto Center
12:32PM 43.7500 -79.7333 154° Southeast 220 253 6,900 -1,380 Descending Toronto Center
12:33PM 43.7000 -79.7500 194° South 210 242 5,300 -1,500 Descending Toronto Center
12:34PM 43.6667 -79.8167 235° Southwest 210 242 4,000 -660 Descending Toronto Center
12:35PM 43.6333 -79.8667 227° Southwest 210 242 4,000  Level Toronto Center
12:36PM 43.5833 -79.9333 224° Southwest 210 242 4,000  Level Toronto Center
12:37PM 43.5500 -79.9833 227° Southwest 210 242 4,000  Level Toronto Center
12:38PM 43.5000 -79.9833 180° South 200 230 4,000 -60 Level Toronto Center
12:39PM 43.5000 -79.9167 90° East 210 242 3,900 -420 Descending Toronto Center
12:40PM 43.5167 -79.8333 75° East 200 230 3,200 -480 Descending Toronto Center
12:41PM 43.5667 -79.8000 26° Northeast 200 230 3,000 -420 Descending Toronto Center
12:42PM 43.6000 -79.7500 47° Northeast 180 207 2,400 -780 Descending Toronto Center
12:43PM 43.6333 -79.7000 47° Northeast 170 196 1,500 -900 Descending Toronto Center